sensor_id;sensor_type;location;lat;lon;timestamp;pressure;altitude;pressure_sealevel;temperature;humidity
39789;BME280;25478;42.626;23.320;2023-03-23T00:01:48;93026.63;;;4.22;99.49
39789;BME280;25478;42.626;23.320;2023-03-23T00:04:15;93044.13;;;4.37;99.60
39789;BME280;25478;42.626;23.320;2023-03-23T00:06:41;93042.28;;;4.38;99.40
39789;BME280;25478;42.626;23.320;2023-03-23T00:09:08;93033.94;;;4.32;99.17
39789;BME280;25478;42.626;23.320;2023-03-23T00:11:33;93019.63;;;4.26;99.69
39789;BME280;25478;42.626;23.320;2023-03-23T00:14:00;93037.56;;;4.43;99.25
39789;BME280;25478;42.626;23.320;2023-03-23T00:16:31;93039.81;;;4.45;99.31
39789;BME280;25478;42.626;23.320;2023-03-23T00:19:00;93038.75;;;4.46;99.70
39789;BME280;25478;42.626;23.320;2023-03-23T00:21:33;93024.69;;;4.35;99.24
39789;BME280;25478;42.626;23.320;2023-03-23T00:24:04;93046.13;;;4.44;99.11
39789;BME280;25478;42.626;23.320;2023-03-23T00:26:31;93053.31;;;4.47;99.29
39789;BME280;25478;42.626;23.320;2023-03-23T00:29:03;93054.13;;;4.51;98.83
39789;BME280;25478;42.626;23.320;2023-03-23T00:31:29;93047.00;;;4.48;99.22
39789;BME280;25478;42.626;23.320;2023-03-23T00:34:03;93016.28;;;4.26;99.02
39789;BME280;25478;42.626;23.320;2023-03-23T00:36:31;93054.47;;;4.49;99.29
39789;BME280;25478;42.626;23.320;2023-03-23T00:38:57;93055.56;;;4.48;99.33
39789;BME280;25478;42.626;23.320;2023-03-23T00:41:25;93056.50;;;4.40;99.50
39789;BME280;25478;42.626;23.320;2023-03-23T00:43:53;93068.09;;;4.43;99.23
39789;BME280;25478;42.626;23.320;2023-03-23T00:46:19;93060.94;;;4.40;99.20
39789;BME280;25478;42.626;23.320;2023-03-23T00:48:46;93063.88;;;4.38;99.49
39789;BME280;25478;42.626;23.320;2023-03-23T00:51:12;93069.09;;;4.38;99.30
39789;BME280;25478;42.626;23.320;2023-03-23T00:53:41;93064.66;;;4.39;99.71
39789;BME280;25478;42.626;23.320;2023-03-23T00:56:08;93074.47;;;4.45;99.61
39789;BME280;25478;42.626;23.320;2023-03-23T00:58:34;93064.53;;;4.35;99.47
39789;BME280;25478;42.626;23.320;2023-03-23T01:01:00;93074.56;;;4.49;99.71
39789;BME280;25478;42.626;23.320;2023-03-23T01:03:26;93077.59;;;4.51;99.70
39789;BME280;25478;42.626;23.320;2023-03-23T01:05:53;93078.47;;;4.55;99.66
39789;BME280;25478;42.626;23.320;2023-03-23T01:08:20;93075.16;;;4.58;100.00
39789;BME280;25478;42.626;23.320;2023-03-23T01:10:47;93077.78;;;4.58;100.00
39789;BME280;25478;42.626;23.320;2023-03-23T01:13:13;93075.59;;;4.60;99.92
39789;BME280;25478;42.626;23.320;2023-03-23T01:15:40;93069.72;;;4.63;99.75
39789;BME280;25478;42.626;23.320;2023-03-23T01:18:08;93068.63;;;4.64;99.98
39789;BME280;25478;42.626;23.320;2023-03-23T01:20:35;93073.84;;;4.64;99.80
39789;BME280;25478;42.626;23.320;2023-03-23T01:23:01;93067.88;;;4.64;100.00
39789;BME280;25478;42.626;23.320;2023-03-23T01:25:31;93064.50;;;4.63;99.43
39789;BME280;25478;42.626;23.320;2023-03-23T01:27:58;93056.25;;;4.61;99.85
39789;BME280;25478;42.626;23.320;2023-03-23T01:30:24;93065.56;;;4.62;99.63
39789;BME280;25478;42.626;23.320;2023-03-23T01:32:50;93066.00;;;4.64;100.00
39789;BME280;25478;42.626;23.320;2023-03-23T01:35:17;93057.84;;;4.66;100.00
39789;BME280;25478;42.626;23.320;2023-03-23T01:37:43;93060.88;;;4.68;100.00
39789;BME280;25478;42.626;23.320;2023-03-23T01:40:10;93061.03;;;4.75;100.00
39789;BME280;25478;42.626;23.320;2023-03-23T01:42:37;93060.47;;;4.82;100.00
39789;BME280;25478;42.626;23.320;2023-03-23T01:45:22;93055.72;;;4.87;100.00
39789;BME280;25478;42.626;23.320;2023-03-23T01:47:52;93055.13;;;4.94;100.00
39789;BME280;25478;42.626;23.320;2023-03-23T01:50:22;93054.78;;;4.95;100.00
39789;BME280;25478;42.626;23.320;2023-03-23T01:52:51;93049.75;;;5.02;100.00
39789;BME280;25478;42.626;23.320;2023-03-23T01:55:19;93053.19;;;5.06;100.00
39789;BME280;25478;42.626;23.320;2023-03-23T01:57:47;93049.91;;;5.09;100.00
39789;BME280;25478;42.626;23.320;2023-03-23T02:00:14;93047.72;;;5.12;100.00
39789;BME280;25478;42.626;23.320;2023-03-23T02:02:46;93041.06;;;5.14;100.00
39789;BME280;25478;42.626;23.320;2023-03-23T02:05:19;93041.81;;;5.15;100.00
39789;BME280;25478;42.626;23.320;2023-03-23T02:07:47;93047.81;;;5.15;100.00
39789;BME280;25478;42.626;23.320;2023-03-23T02:10:14;93042.94;;;5.14;100.00
39789;BME280;25478;42.626;23.320;2023-03-23T02:12:40;93048.16;;;5.14;100.00
39789;BME280;25478;42.626;23.320;2023-03-23T02:15:07;93042.50;;;5.12;100.00
39789;BME280;25478;42.626;23.320;2023-03-23T02:17:36;93046.53;;;5.09;100.00
39789;BME280;25478;42.626;23.320;2023-03-23T02:25:51;93054.91;;;4.99;100.00
39789;BME280;25478;42.626;23.320;2023-03-23T02:36:30;93047.13;;;5.02;100.00
39789;BME280;25478;42.626;23.320;2023-03-23T02:41:42;93053.69;;;5.12;100.00
39789;BME280;25478;42.626;23.320;2023-03-23T02:44:10;93049.31;;;5.16;100.00
39789;BME280;25478;42.626;23.320;2023-03-23T02:46:38;93049.72;;;5.18;100.00
39789;BME280;25478;42.626;23.320;2023-03-23T02:49:05;93052.00;;;5.20;100.00
39789;BME280;25478;42.626;23.320;2023-03-23T02:51:33;93048.97;;;5.18;100.00
39789;BME280;25478;42.626;23.320;2023-03-23T02:54:01;93060.66;;;5.24;100.00
39789;BME280;25478;42.626;23.320;2023-03-23T02:56:28;93060.72;;;5.27;100.00
39789;BME280;25478;42.626;23.320;2023-03-23T02:58:56;93063.34;;;5.27;100.00
39789;BME280;25478;42.626;23.320;2023-03-23T03:03:51;93068.31;;;5.32;100.00
39789;BME280;25478;42.626;23.320;2023-03-23T03:06:28;93075.03;;;5.33;100.00
39789;BME280;25478;42.626;23.320;2023-03-23T03:09:03;93073.88;;;5.31;100.00
39789;BME280;25478;42.626;23.320;2023-03-23T03:11:33;93074.19;;;5.29;100.00
39789;BME280;25478;42.626;23.320;2023-03-23T03:14:31;93083.13;;;5.28;100.00
39789;BME280;25478;42.626;23.320;2023-03-23T03:17:06;93083.13;;;5.28;100.00
39789;BME280;25478;42.626;23.320;2023-03-23T03:19:43;93091.69;;;5.29;100.00
39789;BME280;25478;42.626;23.320;2023-03-23T03:22:11;93090.94;;;5.28;100.00
39789;BME280;25478;42.626;23.320;2023-03-23T03:24:40;93088.78;;;5.30;100.00
39789;BME280;25478;42.626;23.320;2023-03-23T03:27:12;93086.16;;;5.30;100.00
39789;BME280;25478;42.626;23.320;2023-03-23T03:29:47;93093.66;;;5.32;100.00
39789;BME280;25478;42.626;23.320;2023-03-23T03:32:19;93092.91;;;5.31;100.00
39789;BME280;25478;42.626;23.320;2023-03-23T03:34:48;93089.84;;;5.29;100.00
39789;BME280;25478;42.626;23.320;2023-03-23T03:37:17;93090.94;;;5.28;100.00
39789;BME280;25478;42.626;23.320;2023-03-23T03:39:45;93103.19;;;5.24;100.00
39789;BME280;25478;42.626;23.320;2023-03-23T03:42:11;93074.06;;;5.06;100.00
39789;BME280;25478;42.626;23.320;2023-03-23T03:44:36;93091.81;;;5.17;100.00
39789;BME280;25478;42.626;23.320;2023-03-23T03:47:02;93093.25;;;5.14;100.00
39789;BME280;25478;42.626;23.320;2023-03-23T03:49:29;93085.00;;;5.12;100.00
39789;BME280;25478;42.626;23.320;2023-03-23T03:51:55;93084.91;;;5.08;100.00
39789;BME280;25478;42.626;23.320;2023-03-23T03:54:25;93083.75;;;5.06;100.00
39789;BME280;25478;42.626;23.320;2023-03-23T03:56:51;93085.50;;;5.02;100.00
39789;BME280;25478;42.626;23.320;2023-03-23T03:59:41;93085.44;;;4.98;100.00
39789;BME280;25478;42.626;23.320;2023-03-23T04:02:25;93086.53;;;4.97;100.00
39789;BME280;25478;42.626;23.320;2023-03-23T04:04:52;93092.94;;;5.00;100.00
39789;BME280;25478;42.626;23.320;2023-03-23T04:07:18;93091.75;;;4.97;100.00
39789;BME280;25478;42.626;23.320;2023-03-23T04:09:44;93077.97;;;4.97;99.65
39789;BME280;25478;42.626;23.320;2023-03-23T04:12:13;93066.84;;;4.84;99.88
39789;BME280;25478;42.626;23.320;2023-03-23T04:15:14;93077.78;;;4.90;100.00
39789;BME280;25478;42.626;23.320;2023-03-23T04:17:40;93059.94;;;4.76;99.87
39789;BME280;25478;42.626;23.320;2023-03-23T04:20:09;93076.19;;;4.85;99.64
39789;BME280;25478;42.626;23.320;2023-03-23T04:22:41;93083.94;;;4.82;99.37
39789;BME280;25478;42.626;23.320;2023-03-23T04:25:10;93083.19;;;4.81;99.64
39789;BME280;25478;42.626;23.320;2023-03-23T04:27:39;93070.97;;;4.69;99.85
39789;BME280;25478;42.626;23.320;2023-03-23T04:30:10;93090.25;;;4.80;99.83
39789;BME280;25478;42.626;23.320;2023-03-23T04:32:59;93090.25;;;4.80;99.87
39789;BME280;25478;42.626;23.320;2023-03-23T04:35:27;93086.44;;;4.78;99.67
39789;BME280;25478;42.626;23.320;2023-03-23T04:38:17;93092.59;;;4.86;99.84
39789;BME280;25478;42.626;23.320;2023-03-23T04:40:52;93090.91;;;4.93;99.95
39789;BME280;25478;42.626;23.320;2023-03-23T04:43:35;93097.38;;;4.99;99.96
39789;BME280;25478;42.626;23.320;2023-03-23T04:46:22;93089.97;;;5.01;100.00
39789;BME280;25478;42.626;23.320;2023-03-23T04:48:50;93093.16;;;5.11;99.99
39789;BME280;25478;42.626;23.320;2023-03-23T04:51:19;93099.31;;;5.18;100.00
39789;BME280;25478;42.626;23.320;2023-03-23T04:53:48;93100.97;;;5.26;99.53
39789;BME280;25478;42.626;23.320;2023-03-23T04:56:15;93100.03;;;5.34;99.83
39789;BME280;25478;42.626;23.320;2023-03-23T04:58:44;93101.72;;;5.43;99.60
39789;BME280;25478;42.626;23.320;2023-03-23T05:01:30;93102.56;;;5.47;99.29
39789;BME280;25478;42.626;23.320;2023-03-23T05:04:23;93099.31;;;5.53;99.43
39789;BME280;25478;42.626;23.320;2023-03-23T05:07:04;93101.00;;;5.61;99.40
39789;BME280;25478;42.626;23.320;2023-03-23T05:09:34;93107.13;;;5.69;98.77
39789;BME280;25478;42.626;23.320;2023-03-23T05:12:09;93099.03;;;5.74;99.34
39789;BME280;25478;42.626;23.320;2023-03-23T05:14:44;93105.50;;;5.80;98.88
39789;BME280;25478;42.626;23.320;2023-03-23T05:17:14;93117.59;;;5.88;98.59
39789;BME280;25478;42.626;23.320;2023-03-23T05:19:43;93119.88;;;5.90;98.91
39789;BME280;25478;42.626;23.320;2023-03-23T05:22:30;93118.88;;;5.95;98.70
39789;BME280;25478;42.626;23.320;2023-03-23T05:25:01;93122.38;;;6.02;98.40
39789;BME280;25478;42.626;23.320;2023-03-23T05:27:33;93119.91;;;6.09;98.43
39789;BME280;25478;42.626;23.320;2023-03-23T05:30:04;93120.81;;;6.17;97.57
39789;BME280;25478;42.626;23.320;2023-03-23T05:32:32;93131.06;;;6.26;97.98
39789;BME280;25478;42.626;23.320;2023-03-23T05:35:07;93132.72;;;6.34;97.81
39789;BME280;25478;42.626;23.320;2023-03-23T05:37:33;93134.47;;;6.30;96.69
39789;BME280;25478;42.626;23.320;2023-03-23T05:40:06;93116.34;;;6.17;97.07
39789;BME280;25478;42.626;23.320;2023-03-23T05:42:33;93128.94;;;6.31;97.34
39789;BME280;25478;42.626;23.320;2023-03-23T05:45:09;93124.09;;;6.33;96.79
39789;BME280;25478;42.626;23.320;2023-03-23T05:47:37;93134.41;;;6.45;96.95
39789;BME280;25478;42.626;23.320;2023-03-23T05:50:08;93137.16;;;6.53;96.90
39789;BME280;25478;42.626;23.320;2023-03-23T05:52:35;93144.81;;;6.42;96.03
39789;BME280;25478;42.626;23.320;2023-03-23T05:55:04;93140.41;;;6.27;96.51
39789;BME280;25478;42.626;23.320;2023-03-23T05:57:32;93139.25;;;6.24;97.88
39789;BME280;25478;42.626;23.320;2023-03-23T06:00:03;93137.44;;;6.28;97.69
39789;BME280;25478;42.626;23.320;2023-03-23T06:02:55;93140.00;;;6.25;97.95
39789;BME280;25478;42.626;23.320;2023-03-23T06:05:33;93150.91;;;6.30;97.42
39789;BME280;25478;42.626;23.320;2023-03-23T06:07:59;93137.59;;;6.35;97.92
39789;BME280;25478;42.626;23.320;2023-03-23T06:10:25;93155.47;;;6.53;97.31
39789;BME280;25478;42.626;23.320;2023-03-23T06:12:58;93148.56;;;6.64;97.72
39789;BME280;25478;42.626;23.320;2023-03-23T06:15:23;93155.44;;;6.72;97.65
39789;BME280;25478;42.626;23.320;2023-03-23T06:18:00;93139.19;;;6.82;97.82
39789;BME280;25478;42.626;23.320;2023-03-23T06:20:33;93143.13;;;6.95;97.79
39789;BME280;25478;42.626;23.320;2023-03-23T06:23:11;93147.16;;;7.35;97.58
39789;BME280;25478;42.626;23.320;2023-03-23T06:25:37;93150.16;;;7.63;96.90
39789;BME280;25478;42.626;23.320;2023-03-23T06:28:02;93145.25;;;7.85;95.51
39789;BME280;25478;42.626;23.320;2023-03-23T06:30:29;93150.72;;;8.03;94.94
39789;BME280;25478;42.626;23.320;2023-03-23T06:32:56;93156.47;;;8.15;94.04
39789;BME280;25478;42.626;23.320;2023-03-23T06:35:42;93152.50;;;8.25;93.05
39789;BME280;25478;42.626;23.320;2023-03-23T06:38:25;93163.06;;;8.32;92.60
39789;BME280;25478;42.626;23.320;2023-03-23T06:40:54;93158.91;;;8.28;91.83
39789;BME280;25478;42.626;23.320;2023-03-23T06:43:21;93156.41;;;8.08;91.73
39789;BME280;25478;42.626;23.320;2023-03-23T06:45:59;93142.53;;;7.78;92.33
39789;BME280;25478;42.626;23.320;2023-03-23T06:48:40;93169.63;;;7.89;92.61
39789;BME280;25478;42.626;23.320;2023-03-23T06:51:08;93172.25;;;7.89;93.01
39789;BME280;25478;42.626;23.320;2023-03-23T06:53:36;93165.94;;;7.94;93.01
39789;BME280;25478;42.626;23.320;2023-03-23T06:56:04;93169.44;;;8.01;92.69
39789;BME280;25478;42.626;23.320;2023-03-23T06:58:30;93170.94;;;8.02;92.97
39789;BME280;25478;42.626;23.320;2023-03-23T07:00:56;93170.84;;;7.95;92.87
39789;BME280;25478;42.626;23.320;2023-03-23T07:03:29;93169.16;;;8.10;93.48
39789;BME280;25478;42.626;23.320;2023-03-23T07:05:57;93158.91;;;8.28;92.63
39789;BME280;25478;42.626;23.320;2023-03-23T07:08:26;93178.81;;;8.62;92.99
39789;BME280;25478;42.626;23.320;2023-03-23T07:10:53;93184.03;;;8.96;91.72
39789;BME280;25478;42.626;23.320;2023-03-23T07:13:22;93176.00;;;9.19;90.37
39789;BME280;25478;42.626;23.320;2023-03-23T07:15:55;93176.47;;;9.28;89.90
39789;BME280;25478;42.626;23.320;2023-03-23T07:18:21;93176.00;;;9.63;88.92
39789;BME280;25478;42.626;23.320;2023-03-23T07:20:52;93174.22;;;9.78;87.22
39789;BME280;25478;42.626;23.320;2023-03-23T07:23:20;93179.53;;;9.88;87.39
39789;BME280;25478;42.626;23.320;2023-03-23T07:25:55;93179.69;;;10.10;86.94
39789;BME280;25478;42.626;23.320;2023-03-23T07:28:28;93174.91;;;10.30;85.42
39789;BME280;25478;42.626;23.320;2023-03-23T07:30:59;93158.75;;;10.31;84.54
39789;BME280;25478;42.626;23.320;2023-03-23T07:33:24;93177.63;;;10.48;83.91
39789;BME280;25478;42.626;23.320;2023-03-23T07:35:52;93174.28;;;10.54;83.91
39789;BME280;25478;42.626;23.320;2023-03-23T07:38:19;93185.22;;;10.67;83.58
39789;BME280;25478;42.626;23.320;2023-03-23T07:40:47;93187.91;;;10.78;83.45
39789;BME280;25478;42.626;23.320;2023-03-23T07:43:16;93186.81;;;10.89;82.18
39789;BME280;25478;42.626;23.320;2023-03-23T07:46:07;93196.97;;;10.94;81.36
39789;BME280;25478;42.626;23.320;2023-03-23T07:48:47;93196.59;;;10.99;80.10
39789;BME280;25478;42.626;23.320;2023-03-23T07:51:15;93198.09;;;11.00;79.48
39789;BME280;25478;42.626;23.320;2023-03-23T07:53:43;93194.75;;;11.04;78.62
39789;BME280;25478;42.626;23.320;2023-03-23T07:56:28;93194.78;;;11.11;77.82
39789;BME280;25478;42.626;23.320;2023-03-23T07:59:04;93210.56;;;11.07;77.25
39789;BME280;25478;42.626;23.320;2023-03-23T08:01:35;93206.06;;;11.11;77.23
39789;BME280;25478;42.626;23.320;2023-03-23T08:04:26;93200.03;;;11.25;76.41
39789;BME280;25478;42.626;23.320;2023-03-23T08:07:24;93206.09;;;11.33;75.42
39789;BME280;25478;42.626;23.320;2023-03-23T08:09:56;93205.72;;;11.27;75.67
39789;BME280;25478;42.626;23.320;2023-03-23T08:12:44;93212.88;;;11.30;75.46
39789;BME280;25478;42.626;23.320;2023-03-23T08:15:29;93211.34;;;11.33;75.02
39789;BME280;25478;42.626;23.320;2023-03-23T08:18:25;93210.59;;;11.43;75.02
39789;BME280;25478;42.626;23.320;2023-03-23T08:21:12;93211.38;;;11.50;72.94
39789;BME280;25478;42.626;23.320;2023-03-23T08:24:01;93197.78;;;11.34;72.22
39789;BME280;25478;42.626;23.320;2023-03-23T08:26:55;93217.03;;;11.38;71.70
39789;BME280;25478;42.626;23.320;2023-03-23T08:29:44;93204.97;;;11.41;71.96
39789;BME280;25478;42.626;23.320;2023-03-23T08:32:29;93214.03;;;11.54;71.12
39789;BME280;25478;42.626;23.320;2023-03-23T08:35:11;93210.66;;;11.61;70.40
39789;BME280;25478;42.626;23.320;2023-03-23T08:37:58;93194.06;;;11.67;69.94
39789;BME280;25478;42.626;23.320;2023-03-23T08:40:50;93211.78;;;11.92;66.82
39789;BME280;25478;42.626;23.320;2023-03-23T08:43:35;93213.31;;;11.89;63.57
39789;BME280;25478;42.626;23.320;2023-03-23T08:46:35;93216.69;;;11.93;63.01
39789;BME280;25478;42.626;23.320;2023-03-23T08:49:18;93213.28;;;12.07;62.51
39789;BME280;25478;42.626;23.320;2023-03-23T08:52:11;93214.41;;;12.20;61.35
39789;BME280;25478;42.626;23.320;2023-03-23T08:55:06;93209.13;;;12.09;62.15
39789;BME280;25478;42.626;23.320;2023-03-23T08:57:52;93207.25;;;11.99;62.24
39789;BME280;25478;42.626;23.320;2023-03-23T09:00:53;93211.03;;;12.05;60.39
39789;BME280;25478;42.626;23.320;2023-03-23T09:03:45;93193.69;;;12.08;58.52
39789;BME280;25478;42.626;23.320;2023-03-23T09:06:42;93216.28;;;12.30;57.69
39789;BME280;25478;42.626;23.320;2023-03-23T09:09:08;93214.75;;;12.29;56.88
39789;BME280;25478;42.626;23.320;2023-03-23T09:11:34;93214.38;;;12.27;56.68
39789;BME280;25478;42.626;23.320;2023-03-23T09:14:03;93215.50;;;12.30;56.79
39789;BME280;25478;42.626;23.320;2023-03-23T09:16:31;93213.59;;;12.41;56.17
39789;BME280;25478;42.626;23.320;2023-03-23T09:18:58;93211.72;;;12.38;55.30
39789;BME280;25478;42.626;23.320;2023-03-23T09:21:25;93208.38;;;12.16;54.63
39789;BME280;25478;42.626;23.320;2023-03-23T09:23:51;93194.84;;;11.86;55.04
39789;BME280;25478;42.626;23.320;2023-03-23T09:26:17;93188.81;;;11.81;54.86
39789;BME280;25478;42.626;23.320;2023-03-23T09:28:42;93211.78;;;11.95;55.41
39789;BME280;25478;42.626;23.320;2023-03-23T09:31:10;93206.88;;;12.08;55.09
39789;BME280;25478;42.626;23.320;2023-03-23T09:33:36;93200.44;;;12.23;55.00
39789;BME280;25478;42.626;23.320;2023-03-23T09:36:03;93207.19;;;12.38;54.03
39789;BME280;25478;42.626;23.320;2023-03-23T09:38:31;93186.84;;;12.32;54.56
39789;BME280;25478;42.626;23.320;2023-03-23T09:44:06;93202.50;;;12.89;53.32
39789;BME280;25478;42.626;23.320;2023-03-23T09:49:23;93194.84;;;13.12;51.71
39789;BME280;25478;42.626;23.320;2023-03-23T09:51:54;93192.91;;;13.20;52.53
39789;BME280;25478;42.626;23.320;2023-03-23T09:54:34;93187.97;;;13.18;53.10
39789;BME280;25478;42.626;23.320;2023-03-23T09:57:03;93188.78;;;13.15;52.70
39789;BME280;25478;42.626;23.320;2023-03-23T10:02:14;93186.16;;;13.08;53.47
39789;BME280;25478;42.626;23.320;2023-03-23T10:04:46;93187.28;;;13.11;53.87
39789;BME280;25478;42.626;23.320;2023-03-23T10:07:18;93191.44;;;13.08;52.99
39789;BME280;25478;42.626;23.320;2023-03-23T10:09:46;93186.59;;;13.00;52.53
39789;BME280;25478;42.626;23.320;2023-03-23T10:12:36;93187.72;;;12.99;52.23
39789;BME280;25478;42.626;23.320;2023-03-23T10:15:17;93193.78;;;12.95;51.66
39789;BME280;25478;42.626;23.320;2023-03-23T10:17:50;93171.19;;;12.84;51.89
39789;BME280;25478;42.626;23.320;2023-03-23T10:25:19;93183.16;;;13.06;51.27
39789;BME280;25478;42.626;23.320;2023-03-23T10:30:39;93183.56;;;13.01;50.81
39789;BME280;25478;42.626;23.320;2023-03-23T10:33:14;93182.78;;;13.04;50.81
39789;BME280;25478;42.626;23.320;2023-03-23T10:35:48;93172.97;;;13.01;50.60
39789;BME280;25478;42.626;23.320;2023-03-23T10:38:24;93165.06;;;13.05;51.09
39789;BME280;25478;42.626;23.320;2023-03-23T10:40:59;93162.38;;;13.08;51.26
39789;BME280;25478;42.626;23.320;2023-03-23T10:43:25;93167.66;;;13.12;50.59
39789;BME280;25478;42.626;23.320;2023-03-23T10:45:57;93167.59;;;13.22;50.10
39789;BME280;25478;42.626;23.320;2023-03-23T10:48:34;93164.19;;;13.18;51.00
39789;BME280;25478;42.626;23.320;2023-03-23T10:51:04;93170.91;;;13.37;50.54
39789;BME280;25478;42.626;23.320;2023-03-23T10:53:35;93157.22;;;13.49;50.28
39789;BME280;25478;42.626;23.320;2023-03-23T10:56:02;93163.56;;;13.59;50.17
39789;BME280;25478;42.626;23.320;2023-03-23T10:58:34;93159.75;;;13.64;49.35
39789;BME280;25478;42.626;23.320;2023-03-23T11:01:03;93155.97;;;13.65;49.58
39789;BME280;25478;42.626;23.320;2023-03-23T11:06:07;93159.66;;;13.74;49.72
39789;BME280;25478;42.626;23.320;2023-03-23T11:08:58;93138.22;;;13.65;49.99
39789;BME280;25478;42.626;23.320;2023-03-23T11:11:27;93159.25;;;13.79;50.05
39789;BME280;25478;42.626;23.320;2023-03-23T11:14:46;93153.50;;;13.88;50.11
39789;BME280;25478;42.626;23.320;2023-03-23T11:17:01;93153.13;;;13.90;49.98
39789;BME280;25478;42.626;23.320;2023-03-23T11:19:29;93142.53;;;13.90;49.13
39789;BME280;25478;42.626;23.320;2023-03-23T11:22:08;93145.94;;;13.90;48.91
39789;BME280;25478;42.626;23.320;2023-03-23T11:24:44;93137.94;;;13.94;48.52
39789;BME280;25478;42.626;23.320;2023-03-23T11:27:11;93137.53;;;13.95;48.20
39789;BME280;25478;42.626;23.320;2023-03-23T11:29:50;93128.84;;;13.95;47.91
39789;BME280;25478;42.626;23.320;2023-03-23T11:32:17;93140.91;;;13.99;47.81
39789;BME280;25478;42.626;23.320;2023-03-23T11:34:54;93121.72;;;13.92;47.82
39789;BME280;25478;42.626;23.320;2023-03-23T11:37:44;93121.72;;;13.92;47.87
39789;BME280;25478;42.626;23.320;2023-03-23T11:40:17;93124.69;;;13.97;47.76
39789;BME280;25478;42.626;23.320;2023-03-23T11:42:46;93116.69;;;14.01;48.28
39789;BME280;25478;42.626;23.320;2023-03-23T11:45:37;93118.13;;;14.09;48.00
39789;BME280;25478;42.626;23.320;2023-03-23T11:51:08;93112.28;;;14.25;47.57
39789;BME280;25478;42.626;23.320;2023-03-23T11:56:30;93105.03;;;14.32;47.76
39789;BME280;25478;42.626;23.320;2023-03-23T11:58:58;93112.16;;;14.35;46.51
39789;BME280;25478;42.626;23.320;2023-03-23T12:20:17;93106.31;;;14.55;46.84
39789;BME280;25478;42.626;23.320;2023-03-23T12:28:58;93098.06;;;14.46;46.16
39789;BME280;25478;42.626;23.320;2023-03-23T12:34:40;93093.41;;;14.57;45.82
39789;BME280;25478;42.626;23.320;2023-03-23T12:45:40;93091.91;;;14.56;44.72
39789;BME280;25478;42.626;23.320;2023-03-23T12:48:11;93090.00;;;14.56;45.24
39789;BME280;25478;42.626;23.320;2023-03-23T12:51:06;93091.06;;;14.62;45.56
39789;BME280;25478;42.626;23.320;2023-03-23T12:53:38;93086.81;;;14.69;45.87
39789;BME280;25478;42.626;23.320;2023-03-23T12:58:57;93065.78;;;14.58;44.95
39789;BME280;25478;42.626;23.320;2023-03-23T13:01:28;93081.09;;;14.74;45.22
39789;BME280;25478;42.626;23.320;2023-03-23T13:06:33;93089.69;;;14.81;43.90
39789;BME280;25478;42.626;23.320;2023-03-23T13:09:32;93009.38;;;14.27;44.06
39789;BME280;25478;42.626;23.320;2023-03-23T13:12:02;93075.97;;;14.59;44.16
39789;BME280;25478;42.626;23.320;2023-03-23T13:17:14;93074.91;;;14.53;45.03
39789;BME280;25478;42.626;23.320;2023-03-23T13:22:37;93076.19;;;14.72;45.53
39789;BME280;25478;42.626;23.320;2023-03-23T13:25:10;93071.53;;;14.80;45.27
39789;BME280;25478;42.626;23.320;2023-03-23T13:27:38;93069.81;;;14.66;45.19
39789;BME280;25478;42.626;23.320;2023-03-23T13:30:04;93064.56;;;14.62;45.04
39789;BME280;25478;42.626;23.320;2023-03-23T13:32:42;93074.03;;;14.63;45.13
39789;BME280;25478;42.626;23.320;2023-03-23T13:35:17;93072.56;;;14.59;44.96
39789;BME280;25478;42.626;23.320;2023-03-23T13:37:51;93046.97;;;14.49;45.32
39789;BME280;25478;42.626;23.320;2023-03-23T13:40:44;93066.56;;;14.55;45.63
39789;BME280;25478;42.626;23.320;2023-03-23T13:43:10;93067.75;;;14.50;45.53
39789;BME280;25478;42.626;23.320;2023-03-23T13:45:42;93067.06;;;14.46;45.43
39789;BME280;25478;42.626;23.320;2023-03-23T13:50:51;93061.06;;;14.39;45.52
39789;BME280;25478;42.626;23.320;2023-03-23T13:53:44;93059.94;;;14.40;46.03
39789;BME280;25478;42.626;23.320;2023-03-23T13:56:21;93062.91;;;14.42;45.56
39789;BME280;25478;42.626;23.320;2023-03-23T13:58:52;93054.97;;;14.42;45.21
39789;BME280;25478;42.626;23.320;2023-03-23T14:01:36;93058.38;;;14.42;44.76
39789;BME280;25478;42.626;23.320;2023-03-23T14:04:06;93053.88;;;14.39;44.22
39789;BME280;25478;42.626;23.320;2023-03-23T14:06:36;93054.31;;;14.34;43.94
39789;BME280;25478;42.626;23.320;2023-03-23T14:09:31;93048.34;;;14.26;44.55
39789;BME280;25478;42.626;23.320;2023-03-23T14:12:00;93048.41;;;14.23;44.48
39789;BME280;25478;42.626;23.320;2023-03-23T14:14:39;93049.50;;;14.25;44.52
39789;BME280;25478;42.626;23.320;2023-03-23T14:17:08;93041.13;;;14.30;45.07
39789;BME280;25478;42.626;23.320;2023-03-23T14:19:39;93041.13;;;14.30;45.04
39789;BME280;25478;42.626;23.320;2023-03-23T14:22:17;93029.03;;;14.29;45.80
39789;BME280;25478;42.626;23.320;2023-03-23T14:24:43;93036.94;;;14.33;46.09
39789;BME280;25478;42.626;23.320;2023-03-23T14:27:15;93037.34;;;14.31;46.53
39789;BME280;25478;42.626;23.320;2023-03-23T14:29:41;93038.91;;;14.25;46.49
39789;BME280;25478;42.626;23.320;2023-03-23T14:32:08;93037.09;;;14.19;46.54
39789;BME280;25478;42.626;23.320;2023-03-23T14:34:35;93037.84;;;14.19;46.79
39789;BME280;25478;42.626;23.320;2023-03-23T14:37:02;93034.84;;;14.17;46.68
39789;BME280;25478;42.626;23.320;2023-03-23T14:39:37;93029.97;;;14.16;46.56
39789;BME280;25478;42.626;23.320;2023-03-23T14:42:05;93037.94;;;14.12;46.75
39789;BME280;25478;42.626;23.320;2023-03-23T14:44:37;93019.94;;;14.00;46.47
39789;BME280;25478;42.626;23.320;2023-03-23T14:47:09;93036.47;;;14.07;46.25
39789;BME280;25478;42.626;23.320;2023-03-23T14:49:39;93036.88;;;14.06;46.65
39789;BME280;25478;42.626;23.320;2023-03-23T14:52:11;93039.94;;;14.04;47.04
39789;BME280;25478;42.626;23.320;2023-03-23T14:54:38;93037.31;;;14.01;47.06
39789;BME280;25478;42.626;23.320;2023-03-23T14:57:27;93037.34;;;13.97;47.73